DAUA

Touat Cheikh Sidi Mohamed Belkebir Airport

Algeria
METAR DAUA 182300Z 09015KT 5000 TS FEW040CB SCT133 39/07 Q1010
Observed Flight Rules
Aug-18 @ 23:00 UTC (47 minutes ago) Marginal Visual Flight Rules
Wind Visibility Clouds Conditions
90° at 15 knots 5,005 meters
  • Few at 4,000' AGL
  • Scattered at 13,300' AGL
  • Thunderstorm
Temperatures Readings
Current 39°C / 102°F
Dewpoint 7°C / 45°F
Humidity 14%
Altimeter 29.82" Hg
Pressure 1010 hPa
Elevation 263
METAR DAUA 182300Z 09015KT 5000 TS FEW040CB SCT133 39/07 Q1010
Observed Flight Rules
Aug-18 @ 23:00 UTC
(47 minutes ago)
MVFR
Wind Visibility
90° at 15 knots 5,005 meters
Clouds
  • Few at 4,000' AGL
  • Scattered at 13,300' AGL
Conditions
  • Thunderstorm
Temperature Dewpoint
39°C / 102°F 7°C / 45°F
Humidity Altimeter Pressure
14% 29.82" Hg 1010 hPa